Terminal Aerodrome Forecast
Issued by NWS

Home | Current Version | Previous Version | Text Only | Print | Product List | Glossary On
Versions: 1 2 3 4 5 6 7 8 9 10 11 12 13 14 15 16
000
FTUS46 KLOX 181700
TAFLGB
TAF
KLGB 181731Z 1818/1918 25007KT P6SM SCT020
     FM182000 25009KT P6SM SKC
     FM190000 29009KT P6SM SKC
     FM190200 30008KT P6SM SCT015
     FM190500 VRB03KT P6SM OVC020=

USA.gov is the U.S. government's official web portal to all federal, state and local government web resources and services.